createdAt,value
2017-10-09T17:52:51.475Z,92.50
2017-10-09T17:55:19.084Z,92.70
2017-10-09T17:57:46.587Z,92.80
2017-10-09T18:00:14.067Z,93.10
2017-10-09T18:02:43.372Z,93.50
2017-10-09T18:05:12.040Z,94.20
2017-10-09T18:07:40.624Z,94.20
2017-10-09T18:10:09.593Z,94.10
2017-10-09T18:12:37.117Z,94.10
2017-10-09T18:15:04.608Z,93.70
2017-10-09T18:17:32.142Z,93.30
2017-10-09T18:19:59.623Z,93.10
2017-10-09T18:22:28.117Z,92.80
2017-10-09T18:24:55.630Z,93.50
2017-10-09T18:27:23.121Z,93.80
2017-10-09T18:29:52.505Z,94.40
2017-10-09T18:32:20.085Z,94.80
2017-10-09T18:34:47.666Z,94.70
2017-10-09T18:37:15.613Z,94.80
2017-10-09T18:39:43.208Z,94.80
2017-10-09T18:42:10.807Z,94.90
2017-10-09T18:44:40.643Z,95.20
2017-10-09T18:47:08.199Z,95.50
2017-10-09T18:49:35.714Z,95.60
2017-10-09T18:52:03.254Z,95.60
2017-10-09T18:54:31.560Z,95.90
2017-10-09T18:56:59.163Z,95.90
2017-10-09T18:59:26.666Z,95.70
2017-10-09T19:01:54.314Z,95.50
2017-10-09T19:04:22.270Z,95.40
2017-10-09T19:06:51.823Z,95.80
2017-10-09T19:09:19.323Z,95.80
2017-10-09T19:11:48.891Z,95.70
2017-10-09T19:14:16.665Z,96.00
2017-10-09T19:16:44.177Z,96.10
2017-10-09T19:19:12.857Z,96.50
2017-10-09T19:21:41.239Z,96.60
2017-10-09T19:24:09.123Z,96.40
2017-10-09T19:26:36.630Z,96.40
2017-10-09T19:29:04.133Z,96.40
2017-10-09T19:31:33.599Z,96.40
2017-10-09T19:34:01.096Z,96.50
2017-10-09T19:36:28.614Z,96.40
2017-10-09T19:38:56.132Z,96.30
2017-10-09T19:41:23.723Z,96.30
2017-10-09T19:43:51.254Z,96.50
2017-10-09T19:46:18.795Z,96.30
2017-10-09T19:48:46.287Z,96.20
2017-10-09T19:51:14.264Z,96.10
2017-10-09T19:53:41.771Z,96.10
2017-10-09T19:56:09.666Z,96.70
2017-10-09T19:58:37.801Z,96.70
2017-10-09T20:01:05.345Z,97.00
2017-10-09T20:03:32.862Z,97.10
2017-10-09T20:06:00.371Z,97.10
2017-10-09T20:08:28.348Z,96.80
2017-10-09T20:10:56.432Z,96.80
2017-10-09T20:13:24.844Z,97.00
2017-10-09T20:15:52.357Z,97.30
2017-10-09T20:18:21.483Z,97.30
2017-10-09T20:20:49.035Z,97.40
2017-10-09T20:23:17.866Z,97.10
2017-10-09T20:25:48.379Z,97.20
2017-10-09T20:28:15.947Z,97.40
2017-10-09T20:30:44.386Z,97.50
2017-10-09T20:33:12.181Z,97.50
2017-10-09T20:35:40.351Z,97.40
2017-10-09T20:38:07.911Z,97.30
2017-10-09T20:40:35.682Z,97.00
2017-10-09T20:43:03.240Z,96.80
2017-10-09T20:45:30.824Z,96.80
2017-10-09T20:47:59.702Z,96.60
2017-10-09T20:50:28.228Z,96.60
2017-10-09T20:52:56.152Z,96.20
2017-10-09T20:55:25.660Z,96.20
2017-10-09T20:57:53.165Z,96.20
2017-10-09T21:00:25.487Z,96.10
2017-10-09T21:02:52.983Z,96.10
2017-10-09T21:05:20.478Z,96.30
2017-10-09T21:07:49.647Z,96.40
2017-10-09T21:10:18.192Z,96.50
2017-10-09T21:12:46.717Z,96.80
2017-10-09T21:15:14.618Z,96.90
2017-10-09T21:17:42.971Z,96.90
2017-10-09T21:20:10.767Z,96.80
2017-10-09T21:22:39.086Z,96.90
2017-10-09T21:25:07.004Z,97.00
2017-10-09T21:27:34.527Z,97.00
2017-10-09T21:30:04.111Z,97.00
2017-10-09T21:32:31.739Z,97.10
2017-10-09T21:35:00.955Z,97.10
2017-10-09T21:37:28.490Z,97.30
2017-10-09T21:39:55.983Z,97.40
2017-10-09T21:42:24.837Z,97.30
2017-10-09T21:44:54.219Z,97.10
2017-10-09T21:47:21.926Z,97.00
2017-10-09T21:49:49.454Z,97.10
2017-10-09T21:52:17.024Z,96.90
2017-10-09T21:54:45.467Z,96.80
2017-10-09T21:57:13.110Z,96.70
2017-10-09T21:59:41.027Z,96.80
2017-10-09T22:02:09.440Z,96.80
2017-10-09T22:04:36.962Z,96.80
2017-10-09T22:07:04.459Z,97.10
2017-10-09T22:09:31.963Z,97.30
2017-10-09T22:11:59.897Z,97.50
2017-10-09T22:14:27.430Z,97.30
2017-10-09T22:16:54.954Z,97.50
2017-10-09T22:19:25.524Z,97.90
2017-10-09T22:21:55.387Z,97.90
2017-10-09T22:24:23.049Z,98.10
2017-10-09T22:26:54.327Z,98.30
2017-10-09T22:29:23.150Z,98.40
2017-10-09T22:31:51.723Z,98.50
2017-10-09T22:34:19.537Z,98.40
2017-10-09T22:36:47.316Z,98.30
2017-10-09T22:39:15.022Z,98.50
2017-10-09T22:41:45.275Z,98.60
2017-10-09T22:44:13.405Z,98.60
2017-10-09T22:46:40.921Z,98.50
2017-10-09T22:49:11.295Z,98.80
2017-10-09T22:51:38.935Z,98.80
2017-10-09T22:54:08.445Z,99.00
2017-10-09T22:56:37.574Z,99.00
2017-10-09T22:59:06.543Z,99.00
2017-10-09T23:01:34.484Z,98.90
2017-10-09T23:04:02.120Z,99.00
2017-10-09T23:06:30.531Z,98.70
2017-10-09T23:08:59.116Z,98.60
2017-10-09T23:11:26.722Z,98.60
2017-10-09T23:13:54.241Z,98.60
2017-10-09T23:16:25.970Z,98.60
2017-10-09T23:18:56.769Z,98.50
2017-10-09T23:21:36.539Z,98.50
2017-10-09T23:24:06.246Z,98.60
2017-10-09T23:26:38.861Z,98.80
2017-10-09T23:29:14.280Z,98.60
2017-10-09T23:31:42.216Z,98.60
2017-10-09T23:34:11.517Z,98.60
2017-10-09T23:36:48.040Z,98.50
2017-10-09T23:39:15.745Z,98.60
2017-10-09T23:41:45.838Z,98.80
2017-10-09T23:44:18.204Z,98.80
2017-10-09T23:46:46.473Z,98.80
2017-10-09T23:49:14.011Z,98.80
2017-10-09T23:51:41.519Z,98.50
2017-10-09T23:54:09.058Z,98.30
2017-10-09T23:56:37.498Z,98.30
2017-10-09T23:59:05.003Z,98.40
